Mistral — TCCH — position and weather

sailwx.info

Track history (hours):
 
Tides and Currents Weather Stations Pressure Air Temp Water Temp Dewpoint Dewpoint Depression Visibility Wind Speed Wind Dir Waves Ship Positions

Mistral

Last reported at 2014-Jul-31 23:23 UTC. Time now 2014-Aug-01 07:47 UTC.
Position N 39°21' E 025°28'.

; draft 7.4 m.

Type: Ship. MMSI: 271000615.

Date/timePositionNaut miles runAvg speedWind from/ knotsBaromVisibWave heightAir tempDewpointWater temp
2014-Jul-31 23:23N 39°21' E 025°28'7 8.9
2014-Jul-31 22:33N 39°28' E 025°32'9 9.4
2014-Jul-31 21:33N 39°36' E 025°37'10 9.2
2014-Jul-31 20:31N 39°45' E 025°43'  
2014-Jul-26 03:33N 44°18' E 037°18'7 1.3
2014-Jul-25 22:33N 44°13' E 037°12'53 8.9
2014-Jul-25 16:31N 43°41' E 036°12'17 8.8
2014-Jul-25 14:33N 43°31' E 035°53'4010.0
2014-Jul-25 10:33N 43°12' E 035°05'1110.2
2014-Jul-25 09:31N 43°07' E 034°52'25910.4
2014-Jul-24 08:33N 41°17' E 029°35'32 7.9
2014-Jul-24 04:30N 40°59' E 028°60'5 4.9
2014-Jul-24 03:31N 40°56' E 028°56'3 0.7
2014-Jul-23 23:30N 40°58' E 028°54'0 0.0
2014-Jul-23 22:30N 40°58' E 028°54'0 0.0
2014-Jul-23 18:10N 40°58' E 028°54'3 4.2
2014-Jul-23 17:33N 40°56' E 028°57'9 8.3
2014-Jul-23 16:28N 40°50' E 029°05'5 5.4
2014-Jul-23 15:33N 40°50' E 029°12'6 6.3
2014-Jul-23 14:33N 40°47' E 029°19'0 0.4
2014-Jul-23 13:33N 40°47' E 029°20'1 0.5
2014-Jul-23 12:33N 40°47' E 029°19'0 0.4
2014-Jul-23 11:33N 40°47' E 029°19'1 0.7
2014-Jul-23 10:33N 40°46' E 029°19'0 0.4
2014-Jul-23 09:33N 40°46' E 029°19'4 3.9
2014-Jul-23 08:31N 40°45' E 029°24'6 2.5
2014-Jul-23 06:14N 40°46' E 029°31'0 0.0
2014-Jul-22 19:20N 40°46' E 029°31'0 0.0
2014-Jul-22 18:32N 40°46' E 029°31'0 0.0
2014-Jul-22 15:26N 40°46' E 029°31'  
Track history (hours):
 
Tides and Currents Weather Stations Pressure Air Temp Water Temp Dewpoint Dewpoint Depression Visibility Wind Speed Wind Dir Waves Ship Positions

Mistral

Last reported at 2014-Jul-31 23:23 UTC. Time now 2014-Aug-01 07:47 UTC.
Position N 39°21' E 025°28'.

; draft 7.4 m.

Type: Ship. MMSI: 271000615.

Date/timePositionNaut miles runAvg speedWind from/ knotsBaromVisibWave heightAir tempDewpointWater temp
2014-Jul-31 23:23N 39°21' E 025°28'7 8.9
2014-Jul-31 22:33N 39°28' E 025°32'9 9.4
2014-Jul-31 21:33N 39°36' E 025°37'10 9.2
2014-Jul-31 20:31N 39°45' E 025°43'  
2014-Jul-26 03:33N 44°18' E 037°18'7 1.3
2014-Jul-25 22:33N 44°13' E 037°12'53 8.9
2014-Jul-25 16:31N 43°41' E 036°12'17 8.8
2014-Jul-25 14:33N 43°31' E 035°53'4010.0
2014-Jul-25 10:33N 43°12' E 035°05'1110.2
2014-Jul-25 09:31N 43°07' E 034°52'25910.4
2014-Jul-24 08:33N 41°17' E 029°35'32 7.9
2014-Jul-24 04:30N 40°59' E 028°60'5 4.9
2014-Jul-24 03:31N 40°56' E 028°56'3 0.7
2014-Jul-23 23:30N 40°58' E 028°54'0 0.0
2014-Jul-23 22:30N 40°58' E 028°54'0 0.0
2014-Jul-23 18:10N 40°58' E 028°54'3 4.2
2014-Jul-23 17:33N 40°56' E 028°57'9 8.3
2014-Jul-23 16:28N 40°50' E 029°05'5 5.4
2014-Jul-23 15:33N 40°50' E 029°12'6 6.3
2014-Jul-23 14:33N 40°47' E 029°19'0 0.4
2014-Jul-23 13:33N 40°47' E 029°20'1 0.5
2014-Jul-23 12:33N 40°47' E 029°19'0 0.4
2014-Jul-23 11:33N 40°47' E 029°19'1 0.7
2014-Jul-23 10:33N 40°46' E 029°19'0 0.4
2014-Jul-23 09:33N 40°46' E 029°19'4 3.9
2014-Jul-23 08:31N 40°45' E 029°24'6 2.5
2014-Jul-23 06:14N 40°46' E 029°31'0 0.0
2014-Jul-22 19:20N 40°46' E 029°31'0 0.0
2014-Jul-22 18:32N 40°46' E 029°31'0 0.0
2014-Jul-22 15:26N 40°46' E 029°31'  

Dump ship's entire track history